Terminal Aerodrome Forecast
Issued by NWS Blacksburg, VA

Current Version | Previous Version | Graphics & Text | Print | Product List | Glossary On
Versions: 1 2 3 4 5 6 7 8 9 10 11 12 13 14 15 16 17 18 19 20 21 22 23 24 25 26 27 28 29 30 31 32
000
FTUS41 KRNK 171736
TAFBLF
TAF
KBLF 171736Z 1718/1818 29011G19KT P6SM SCT008 OVC012
     FM172000 29010KT P6SM SCT015 BKN025
     FM180200 29006KT P6SM SCT009 OVC015
     FM180800 30005KT P6SM OVC007=

USA.gov is the U.S. government's official web portal to all federal, state and local government web resources and services.